Time;durP1;ratioP1;P1;durP2;ratioP2;P2;SDS_P1;SDS_P2;PMS_P1;PMS_P2;Temp;Humidity;BMP_temperature;BMP_pressure;BME280_temperature;BME280_humidity;BME280_pressure;Samples;Min_cycle;Max_cycle;Signal;HPM_P1;HPM_P2
2023/03/04 00:05:18;;;;;;;17.63;3.17;;;4.10;99.90;;;;;;12331221;28;20047;-78
2023/03/04 00:11:20;;;;;;;17.63;2.80;;;4.00;99.90;;;;;;12333278;28;20066;-79
2023/03/04 00:17:23;;;;;;;18.30;3.47;;;4.00;99.90;;;;;;12313889;28;20422;-79
2023/03/04 00:23:25;;;;;;;17.50;2.40;;;4.10;99.90;;;;;;12316156;28;20097;-79
2023/03/04 00:29:26;;;;;;;16.98;2.90;;;4.10;99.90;;;;;;12320559;28;20055;-78
2023/03/04 00:35:28;;;;;;;17.95;2.88;;;4.00;99.90;;;;;;12321378;28;20059;-79
2023/03/04 00:41:30;;;;;;;17.13;3.92;;;4.00;99.90;;;;;;12332597;28;20799;-79
2023/03/04 00:47:32;;;;;;;14.70;2.30;;;4.10;99.90;;;;;;12322797;28;20495;-78
2023/03/04 00:53:34;;;;;;;17.92;2.42;;;4.10;99.90;;;;;;12323184;28;20050;-78
2023/03/04 00:59:36;;;;;;;16.73;2.35;;;4.20;99.90;;;;;;12336860;28;20055;-79
2023/03/04 01:05:38;;;;;;;17.05;2.40;;;4.10;99.90;;;;;;12312660;28;20043;-79
2023/03/04 01:11:40;;;;;;;13.60;2.45;;;4.10;99.90;;;;;;12339350;28;20058;-79
2023/03/04 01:17:41;;;;;;;16.90;3.88;;;4.10;99.90;;;;;;12315558;28;20062;-79
2023/03/04 01:23:43;;;;;;;20.02;2.30;;;4.10;99.90;;;;;;12310354;28;20100;-78
2023/03/04 01:29:45;;;;;;;22.80;2.47;;;4.10;99.90;;;;;;12335528;28;20051;-79
2023/03/04 01:35:47;;;;;;;16.48;3.10;;;4.10;99.90;;;;;;12319941;28;20053;-79
2023/03/04 01:41:49;;;;;;;14.93;2.42;;;4.10;99.90;;;;;;12322476;28;20144;-79
2023/03/04 01:47:51;;;;;;;19.27;2.75;;;4.00;99.90;;;;;;12330167;28;20440;-79
2023/03/04 01:53:53;;;;;;;17.75;2.72;;;4.10;99.90;;;;;;12332878;28;20525;-79
2023/03/04 02:00:32;;;;;;;11.20;2.40;;;4.10;99.90;;;;;;12342360;28;20518;-79
2023/03/04 02:06:37;;;;;;;15.95;2.65;;;4.10;99.90;;;;;;12262129;28;20044;-79
2023/03/04 02:12:39;;;;;;;17.33;2.13;;;4.10;99.90;;;;;;12329164;28;20050;-80
2023/03/04 02:18:41;;;;;;;16.17;2.25;;;4.10;99.90;;;;;;12303302;28;20411;-78
2023/03/04 02:25:01;;;;;;;13.13;2.55;;;4.10;99.90;;;;;;12340605;28;20645;-79
2023/03/04 02:31:03;;;;;;;9.40;1.73;;;4.10;99.90;;;;;;12335570;28;20118;-79
2023/03/04 02:37:05;;;;;;;10.57;1.55;;;4.20;99.90;;;;;;12324208;28;20051;-79
2023/03/04 02:43:10;;;;;;;16.13;1.98;;;4.20;99.90;;;;;;12314678;28;20100;-78
2023/03/04 02:49:13;;;;;;;13.70;1.58;;;4.20;99.90;;;;;;12310481;28;20554;-79
2023/03/04 02:55:15;;;;;;;13.68;2.10;;;4.20;99.90;;;;;;12320669;28;20097;-79
2023/03/04 03:01:17;;;;;;;15.05;2.13;;;4.20;99.90;;;;;;12366881;28;20050;-78
2023/03/04 03:07:18;;;;;;;18.55;2.40;;;4.30;99.90;;;;;;12329831;28;20058;-78
2023/03/04 03:13:20;;;;;;;17.77;2.22;;;4.30;99.90;;;;;;12328172;28;20062;-78
2023/03/04 03:19:22;;;;;;;20.35;2.25;;;4.30;99.90;;;;;;12323432;28;20062;-79
2023/03/04 03:25:24;;;;;;;11.23;1.63;;;4.30;99.90;;;;;;12344233;28;20055;-78
2023/03/04 03:31:26;;;;;;;13.35;1.70;;;4.20;99.90;;;;;;12322848;28;20077;-79
2023/03/04 03:37:28;;;;;;;12.90;2.42;;;4.20;99.90;;;;;;12347891;28;20058;-79
2023/03/04 03:43:31;;;;;;;10.75;1.42;;;4.20;99.90;;;;;;12347131;28;20712;-79
2023/03/04 03:49:33;;;;;;;12.55;1.77;;;4.20;99.90;;;;;;12352139;28;20082;-78
2023/03/04 03:55:35;;;;;;;13.45;1.83;;;4.20;99.90;;;;;;12337795;28;20047;-79
2023/03/04 04:01:36;;;;;;;10.30;2.50;;;4.20;99.90;;;;;;12339350;28;20050;-79
2023/03/04 04:07:40;;;;;;;10.93;1.50;;;4.30;99.90;;;;;;12332169;28;20106;-79
2023/03/04 04:13:42;;;;;;;14.85;2.08;;;4.30;99.90;;;;;;12314043;28;20043;-79
2023/03/04 04:19:44;;;;;;;10.52;1.50;;;4.20;99.90;;;;;;12332117;28;20882;-79
2023/03/04 04:25:47;;;;;;;10.88;2.10;;;4.30;99.90;;;;;;12341615;28;20164;-79
2023/03/04 04:31:49;;;;;;;7.55;1.50;;;4.20;99.90;;;;;;12321849;28;20085;-79
2023/03/04 04:37:51;;;;;;;9.05;1.17;;;4.30;99.90;;;;;;12308546;28;20043;-78
2023/03/04 04:43:53;;;;;;;8.90;1.92;;;4.30;99.90;;;;;;12316129;28;20054;-78
2023/03/04 04:49:55;;;;;;;9.48;1.70;;;4.30;99.90;;;;;;12323829;28;20054;-78
2023/03/04 04:55:57;;;;;;;10.52;1.30;;;4.30;99.90;;;;;;12335410;28;20070;-78
2023/03/04 05:01:59;;;;;;;11.43;1.65;;;4.30;99.90;;;;;;12341141;28;20105;-78
2023/03/04 05:08:01;;;;;;;11.02;1.83;;;4.20;99.90;;;;;;12351451;28;20054;-78
2023/03/04 05:14:03;;;;;;;10.90;1.45;;;4.20;99.90;;;;;;12299685;28;20142;-78
2023/03/04 05:20:06;;;;;;;14.02;1.90;;;4.10;99.90;;;;;;12321642;28;20051;-78
2023/03/04 05:26:11;;;;;;;8.77;1.50;;;4.10;99.90;;;;;;12318793;28;20133;-79
2023/03/04 05:32:13;;;;;;;8.18;1.40;;;4.10;99.90;;;;;;12321135;28;20086;-79
2023/03/04 05:38:18;;;;;;;7.13;1.30;;;4.10;99.90;;;;;;12336964;28;20051;-79
2023/03/04 05:44:20;;;;;;;15.30;2.38;;;4.00;99.90;;;;;;12312827;28;20469;-78
2023/03/04 05:50:23;;;;;;;10.18;1.75;;;4.00;99.90;;;;;;12306708;28;20866;-78
2023/03/04 05:56:25;;;;;;;14.15;2.22;;;3.90;99.90;;;;;;12343510;28;20047;-80
2023/03/04 06:02:27;;;;;;;8.50;1.67;;;4.00;99.90;;;;;;12357368;28;20050;-79
2023/03/04 06:08:29;;;;;;;9.73;1.70;;;3.90;99.90;;;;;;12308716;28;20047;-79
2023/03/04 06:14:31;;;;;;;12.20;1.63;;;3.80;99.90;;;;;;12325550;28;20073;-78
2023/03/04 06:20:33;;;;;;;9.82;1.50;;;3.80;99.90;;;;;;12324065;28;20047;-79
2023/03/04 06:26:35;;;;;;;12.35;1.95;;;3.80;99.90;;;;;;12328432;28;20055;-79
2023/03/04 06:32:37;;;;;;;10.32;1.88;;;3.80;99.90;;;;;;12339924;28;20058;-79
2023/03/04 06:38:39;;;;;;;10.43;1.90;;;3.80;99.90;;;;;;12336495;28;20054;-78
2023/03/04 06:44:41;;;;;;;9.13;1.67;;;3.80;99.90;;;;;;12344273;28;20047;-78
2023/03/04 06:50:43;;;;;;;7.68;1.98;;;3.90;99.90;;;;;;12337313;28;20101;-78
2023/03/04 06:56:45;;;;;;;11.82;2.15;;;3.90;99.90;;;;;;12341498;28;20054;-79
2023/03/04 07:02:47;;;;;;;9.15;1.85;;;3.90;99.90;;;;;;12345034;28;20141;-79
2023/03/04 07:08:49;;;;;;;13.80;1.73;;;4.00;99.90;;;;;;12319222;28;20555;-79
2023/03/04 07:14:51;;;;;;;9.15;1.73;;;4.00;99.90;;;;;;12324083;28;20051;-78
2023/03/04 07:20:53;;;;;;;12.02;2.05;;;4.10;99.90;;;;;;12334549;28;20055;-78
2023/03/04 07:26:55;;;;;;;9.77;1.80;;;4.10;99.90;;;;;;12337637;28;20507;-79
2023/03/04 07:32:57;;;;;;;12.45;2.15;;;4.20;99.90;;;;;;12359316;28;20059;-78
2023/03/04 07:38:59;;;;;;;18.98;2.22;;;4.20;99.90;;;;;;12341712;28;20396;-79
2023/03/04 07:45:02;;;;;;;11.52;1.88;;;4.30;99.90;;;;;;12331965;28;20551;-80
2023/03/04 07:51:15;;;;;;;10.20;2.03;;;4.40;99.90;;;;;;12325054;28;20050;-79
2023/03/04 07:57:17;;;;;;;15.70;2.07;;;4.50;99.90;;;;;;12305451;28;20079;-79
2023/03/04 08:03:19;;;;;;;9.65;1.77;;;4.50;99.90;;;;;;12321694;28;20167;-79
2023/03/04 08:09:21;;;;;;;10.65;2.10;;;4.50;99.90;;;;;;12333683;28;20101;-79
2023/03/04 08:15:26;;;;;;;10.90;1.85;;;4.70;99.90;;;;;;12325069;28;20097;-79
2023/03/04 08:21:28;;;;;;;12.77;3.00;;;4.80;99.90;;;;;;12315263;28;20047;-79
2023/03/04 08:27:30;;;;;;;11.25;1.58;;;4.90;99.90;;;;;;12348051;28;20062;-79
2023/03/04 08:33:32;;;;;;;12.18;1.80;;;4.90;99.90;;;;;;12339498;28;20187;-79
2023/03/04 08:39:35;;;;;;;9.18;1.88;;;4.90;99.90;;;;;;12340885;28;20058;-79
2023/03/04 08:45:37;;;;;;;10.38;2.65;;;4.90;99.90;;;;;;12327179;28;20407;-79
2023/03/04 08:51:39;;;;;;;13.85;2.97;;;4.80;99.90;;;;;;12356001;28;20491;-79
2023/03/04 08:57:41;;;;;;;8.50;2.60;;;4.60;99.90;;;;;;12349315;28;20093;-79
2023/03/04 09:03:43;;;;;;;12.10;2.17;;;4.60;99.90;;;;;;12331650;28;20083;-79
2023/03/04 09:09:45;;;;;;;10.63;2.60;;;4.60;99.90;;;;;;12292780;28;20048;-79
2023/03/04 09:15:49;;;;;;;7.57;2.45;;;4.60;99.90;;;;;;12354919;28;20101;-80
2023/03/04 09:21:53;;;;;;;8.70;2.60;;;4.70;99.90;;;;;;12325782;28;20086;-80
2023/03/04 09:27:55;;;;;;;10.30;2.50;;;4.80;99.90;;;;;;12336593;28;20397;-80
2023/03/04 09:33:58;;;;;;;8.05;2.42;;;4.70;99.90;;;;;;12344203;28;20120;-80
2023/03/04 09:40:00;;;;;;;9.77;2.47;;;4.80;99.90;;;;;;12331987;28;20051;-80
2023/03/04 09:46:10;;;;;;;9.95;2.85;;;4.90;99.90;;;;;;12334263;28;20059;-80
2023/03/04 09:52:21;;;;;;;9.10;2.80;;;4.90;99.90;;;;;;12351362;28;20062;-80
2023/03/04 09:58:51;;;;;;;10.38;2.63;;;5.00;99.90;;;;;;12326526;28;20097;-80
2023/03/04 10:04:58;;;;;;;7.13;2.58;;;5.10;99.90;;;;;;12342825;28;20047;-79
2023/03/04 10:11:03;;;;;;;6.30;2.28;;;5.10;99.90;;;;;;12308431;28;20101;-80
2023/03/04 10:17:41;;;;;;;8.05;1.70;;;5.10;99.90;;;;;;12348977;28;20039;-81
2023/03/04 10:23:43;;;;;;;5.18;1.70;;;5.10;99.90;;;;;;12249553;28;20038;-78
2023/03/04 10:29:45;;;;;;;9.27;2.13;;;5.20;99.90;;;;;;12342771;28;20091;-79
2023/03/04 10:36:03;;;;;;;4.20;1.60;;;5.50;99.90;;;;;;12365592;28;20086;-79
2023/03/04 10:42:14;;;;;;;10.40;1.70;;;6.00;99.90;;;;;;12322948;28;20067;-78
2023/03/04 10:48:19;;;;;;;4.53;1.58;;;5.80;99.90;;;;;;12317065;28;20093;-81
2023/03/04 10:54:44;;;;;;;5.32;1.42;;;5.80;99.90;;;;;;12345875;28;20050;-78
2023/03/04 11:01:02;;;;;;;7.15;1.60;;;5.60;99.90;;;;;;12330269;28;20074;-79
2023/03/04 11:07:10;;;;;;;11.18;1.63;;;5.30;99.90;;;;;;12320406;28;20082;-79
2023/03/04 11:13:18;;;;;;;9.32;1.40;;;5.40;99.90;;;;;;12311955;28;20050;-79
2023/03/04 11:19:23;;;;;;;5.65;1.30;;;5.60;99.90;;;;;;12297850;28;20137;-79
2023/03/04 11:25:39;;;;;;;8.75;1.40;;;6.00;99.90;;;;;;12342129;28;20054;-78
2023/03/04 11:31:51;;;;;;;8.00;1.40;;;6.50;99.90;;;;;;12314103;28;21400;-79
2023/03/04 11:38:20;;;;;;;11.02;1.80;;;6.80;99.90;;;;;;12321287;28;20130;-79
2023/03/04 11:44:24;;;;;;;4.32;0.90;;;6.70;99.90;;;;;;12309857;28;20085;-78
2023/03/04 11:50:46;;;;;;;10.77;1.60;;;6.60;99.90;;;;;;12328081;28;20051;-79
2023/03/04 11:56:52;;;;;;;10.88;1.92;;;6.60;99.90;;;;;;12333567;28;20084;-78
2023/03/04 12:03:15;;;;;;;9.85;1.48;;;6.70;99.90;;;;;;12342830;28;20123;-78
2023/03/04 12:09:30;;;;;;;8.55;1.42;;;7.00;99.90;;;;;;12297468;28;20059;-78
2023/03/04 12:15:54;;;;;;;11.50;2.07;;;6.80;99.90;;;;;;12342778;28;20047;-79
2023/03/04 12:22:05;;;;;;;10.77;2.15;;;6.40;99.90;;;;;;12310819;28;20039;-79
2023/03/04 12:28:29;;;;;;;3.90;1.10;;;6.00;99.90;;;;;;12344403;28;20126;-80
2023/03/04 12:34:49;;;;;;;5.40;0.68;;;5.70;99.90;;;;;;12311342;28;20047;-79
2023/03/04 12:41:10;;;;;;;4.65;0.82;;;5.70;99.90;;;;;;12316689;28;20077;-79
2023/03/04 12:47:26;;;;;;;5.65;1.55;;;5.90;99.90;;;;;;12335034;28;20050;-79
2023/03/04 12:53:55;;;;;;;4.47;0.95;;;6.10;99.90;;;;;;12323532;28;20517;-78
2023/03/04 13:00:21;;;;;;;6.68;1.05;;;6.40;99.90;;;;;;12339188;28;20129;-80
2023/03/04 13:06:23;;;;;;;10.30;1.70;;;6.90;99.90;;;;;;12331405;28;20517;-78
2023/03/04 13:12:25;;;;;;;9.00;1.20;;;6.60;99.90;;;;;;12331768;28;20055;-79
2023/03/04 13:18:35;;;;;;;10.30;1.48;;;6.30;99.90;;;;;;12329975;28;20229;-78
2023/03/04 13:24:49;;;;;;;10.02;1.50;;;5.90;99.90;;;;;;12302449;28;20531;-79
2023/03/04 13:30:54;;;;;;;8.60;1.53;;;5.70;99.90;;;;;;12356200;28;20061;-78
2023/03/04 13:36:57;;;;;;;7.47;1.23;;;5.50;99.90;;;;;;12352353;28;20062;-78
2023/03/04 13:43:38;;;;;;;8.35;1.00;;;5.40;99.90;;;;;;12379138;28;20039;-78
2023/03/04 13:49:40;;;;;;;9.25;1.35;;;5.50;99.90;;;;;;12381123;28;20046;-79
2023/03/04 13:55:42;;;;;;;9.75;1.48;;;5.60;99.90;;;;;;12387919;28;20114;-78
2023/03/04 14:02:00;;;;;;;10.05;1.67;;;5.70;99.90;;;;;;12362653;28;20042;-79
2023/03/04 14:08:19;;;;;;;10.77;2.00;;;5.90;99.90;;;;;;12347779;28;20082;-79
2023/03/04 14:14:25;;;;;;;10.73;1.80;;;6.10;99.90;;;;;;12320153;28;20051;-78
2023/03/04 14:20:36;;;;;;;10.13;1.50;;;6.20;99.90;;;;;;12316146;28;20081;-79
2023/03/04 14:26:38;;;;;;;10.27;1.52;;;6.30;99.90;;;;;;12328602;28;20101;-78
2023/03/04 14:32:41;;;;;;;12.20;2.00;;;6.20;99.90;;;;;;12318072;28;20121;-78
2023/03/04 14:38:48;;;;;;;15.00;3.13;;;6.00;99.90;;;;;;12329552;28;20050;-78
2023/03/04 14:44:51;;;;;;;19.63;3.10;;;5.90;99.90;;;;;;12310774;28;20050;-78
2023/03/04 14:50:55;;;;;;;13.95;3.17;;;5.70;99.90;;;;;;12290389;28;20059;-78
2023/03/04 14:56:59;;;;;;;7.57;1.63;;;5.60;99.90;;;;;;12314669;28;20047;-78
2023/03/04 15:03:24;;;;;;;13.57;2.63;;;5.60;99.90;;;;;;12328545;28;20451;-78
2023/03/04 15:09:26;;;;;;;14.60;2.30;;;5.70;99.90;;;;;;12311755;28;20690;-78
2023/03/04 15:15:42;;;;;;;8.82;1.77;;;5.80;99.90;;;;;;12314930;28;20129;-78
2023/03/04 15:21:44;;;;;;;12.55;1.75;;;5.80;99.90;;;;;;12347788;28;20491;-79
2023/03/04 15:27:47;;;;;;;11.13;1.60;;;5.60;99.90;;;;;;12361033;28;20066;-78
2023/03/04 15:33:49;;;;;;;14.05;1.95;;;5.60;99.90;;;;;;12348473;28;20050;-78
2023/03/04 15:39:53;;;;;;;11.23;1.80;;;5.40;99.90;;;;;;12332382;28;20051;-79
2023/03/04 15:45:55;;;;;;;8.40;1.35;;;5.40;99.90;;;;;;12340196;28;20233;-80
2023/03/04 15:51:58;;;;;;;8.82;1.33;;;5.10;99.90;;;;;;12354583;28;20050;-78
2023/03/04 15:58:01;;;;;;;5.22;1.10;;;4.70;99.90;;;;;;12342899;28;20169;-79
2023/03/04 16:04:03;;;;;;;7.88;1.30;;;4.30;99.90;;;;;;12344803;28;20139;-80
2023/03/04 16:10:14;;;;;;;4.68;1.58;;;4.20;99.90;;;;;;12333075;28;20051;-79
2023/03/04 16:16:16;;;;;;;7.43;1.60;;;4.30;99.90;;;;;;12293119;28;20055;-79
2023/03/04 16:22:24;;;;;;;11.10;1.55;;;4.30;99.90;;;;;;12313879;28;20418;-79
2023/03/04 16:28:26;;;;;;;11.65;1.70;;;4.50;99.90;;;;;;12321831;28;20046;-79
2023/03/04 16:34:28;;;;;;;10.63;1.70;;;4.40;99.90;;;;;;12326023;28;20043;-79
2023/03/04 16:40:30;;;;;;;15.75;2.33;;;4.30;99.90;;;;;;12350533;28;20097;-79
2023/03/04 16:46:32;;;;;;;10.57;1.90;;;4.30;99.90;;;;;;12345465;28;20154;-78
2023/03/04 16:52:35;;;;;;;13.55;1.83;;;4.30;99.90;;;;;;12323273;28;20399;-79
2023/03/04 16:58:37;;;;;;;11.48;1.40;;;4.30;99.90;;;;;;12310653;28;20141;-79
2023/03/04 17:04:39;;;;;;;7.50;1.73;;;4.30;99.90;;;;;;12350342;28;20105;-79
2023/03/04 17:10:41;;;;;;;9.13;2.60;;;4.10;99.90;;;;;;12310190;28;20047;-78
2023/03/04 17:16:43;;;;;;;6.55;1.88;;;4.00;99.90;;;;;;12329511;28;20082;-80
2023/03/04 17:22:45;;;;;;;11.50;1.92;;;3.90;99.90;;;;;;12334272;28;20077;-79
2023/03/04 17:28:48;;;;;;;12.35;1.90;;;3.90;99.90;;;;;;12328491;28;20158;-78
2023/03/04 17:34:53;;;;;;;11.57;2.13;;;3.90;99.90;;;;;;12342926;28;20130;-79
2023/03/04 17:41:00;;;;;;;11.30;2.25;;;3.80;99.90;;;;;;12340752;28;20055;-79
2023/03/04 17:47:03;;;;;;;11.73;2.22;;;3.80;99.90;;;;;;12317737;28;20169;-79
2023/03/04 17:53:04;;;;;;;12.43;2.47;;;3.90;99.90;;;;;;12327114;28;20617;-79
2023/03/04 17:59:10;;;;;;;13.35;2.40;;;3.90;99.90;;;;;;12314847;28;20055;-79
2023/03/04 18:05:12;;;;;;;18.50;2.42;;;3.90;99.90;;;;;;12332261;28;20568;-79
2023/03/04 18:11:14;;;;;;;15.02;2.28;;;3.90;99.90;;;;;;12319936;28;20043;-79
2023/03/04 18:17:16;;;;;;;11.15;1.70;;;3.90;99.90;;;;;;12308446;28;20047;-79
2023/03/04 18:23:18;;;;;;;15.23;2.17;;;3.80;99.90;;;;;;12342326;28;20406;-79
2023/03/04 18:29:20;;;;;;;8.95;2.13;;;3.90;99.90;;;;;;12322709;28;20523;-79
2023/03/04 18:35:22;;;;;;;13.40;1.73;;;3.90;99.90;;;;;;12317016;28;20360;-79
2023/03/04 18:41:24;;;;;;;9.90;2.38;;;3.90;99.90;;;;;;12314624;28;20880;-79
2023/03/04 18:47:32;;;;;;;13.43;3.00;;;3.90;99.90;;;;;;12300925;28;20047;-78
2023/03/04 18:53:34;;;;;;;11.33;2.30;;;3.90;99.90;;;;;;12325231;28;20412;-79
2023/03/04 18:59:46;;;;;;;9.10;1.63;;;4.00;99.90;;;;;;12368006;28;20066;-80
2023/03/04 19:05:48;;;;;;;14.57;2.30;;;3.90;99.90;;;;;;12353991;28;20035;-81
2023/03/04 19:11:50;;;;;;;12.07;2.13;;;3.80;99.90;;;;;;12377917;28;20057;-81
2023/03/04 19:17:52;;;;;;;14.10;2.60;;;3.80;99.90;;;;;;12393556;28;20051;-80
2023/03/04 19:23:54;;;;;;;13.65;2.05;;;3.80;99.90;;;;;;12337555;28;20047;-80
2023/03/04 19:29:56;;;;;;;11.57;2.38;;;3.80;99.90;;;;;;12350464;28;20046;-80
2023/03/04 19:36:01;;;;;;;12.93;2.28;;;3.80;99.90;;;;;;12327641;28;20828;-80
2023/03/04 19:42:03;;;;;;;18.80;2.35;;;3.80;99.90;;;;;;12323202;28;20161;-80
2023/03/04 19:48:05;;;;;;;23.48;3.47;;;3.80;99.90;;;;;;12322772;28;20047;-80
2023/03/04 19:54:09;;;;;;;15.95;4.07;;;3.80;99.90;;;;;;12299149;28;20079;-79
2023/03/04 20:00:11;;;;;;;11.00;1.67;;;3.70;99.90;;;;;;12314684;28;20107;-80
2023/03/04 20:06:13;;;;;;;9.80;2.00;;;3.70;99.90;;;;;;12329526;28;20069;-80
2023/03/04 20:12:15;;;;;;;12.57;1.90;;;3.60;99.90;;;;;;12328365;28;20062;-80
2023/03/04 20:18:17;;;;;;;11.85;1.60;;;3.60;99.90;;;;;;12311074;28;20099;-80
2023/03/04 20:24:21;;;;;;;6.45;1.10;;;3.60;99.90;;;;;;12322886;28;20114;-80
2023/03/04 20:30:24;;;;;;;;;;;3.50;99.90;;;;;;12318711;28;20410;-80
2023/03/04 20:36:27;;;;;;;11.02;2.03;;;3.50;99.90;;;;;;12310549;28;20009;-79
2023/03/04 20:42:30;;;;;;;9.55;1.90;;;3.40;99.90;;;;;;12337847;28;20059;-80
2023/03/04 20:48:32;;;;;;;9.50;1.77;;;3.40;99.90;;;;;;12343928;28;20504;-80
2023/03/04 20:54:36;;;;;;;11.52;2.13;;;3.30;99.90;;;;;;12315570;28;20450;-80
2023/03/04 21:00:38;;;;;;;9.63;1.77;;;3.30;99.90;;;;;;12333842;28;20047;-79
2023/03/04 21:06:40;;;;;;;8.23;1.98;;;3.30;99.90;;;;;;12330337;28;20134;-79
2023/03/04 21:12:42;;;;;;;9.55;1.65;;;3.30;99.90;;;;;;12329787;28;20615;-80
2023/03/04 21:18:44;;;;;;;11.63;1.70;;;3.20;99.90;;;;;;12341331;28;20054;-80
2023/03/04 21:24:46;;;;;;;8.73;1.77;;;3.20;99.90;;;;;;12295044;28;20109;-80
2023/03/04 21:30:49;;;;;;;14.32;2.40;;;3.20;99.90;;;;;;12331059;28;20054;-80
2023/03/04 21:36:51;;;;;;;12.90;2.72;;;3.20;99.90;;;;;;12305749;28;20055;-80
2023/03/04 21:42:53;;;;;;;10.55;1.88;;;3.10;99.90;;;;;;12321880;28;20121;-80
2023/03/04 21:48:55;;;;;;;11.38;1.80;;;3.20;99.90;;;;;;12317158;28;20714;-80
2023/03/04 21:54:57;;;;;;;12.95;1.80;;;3.30;99.90;;;;;;12315888;28;20039;-80
2023/03/04 22:00:59;;;;;;;12.73;1.70;;;3.20;99.90;;;;;;12324966;28;20054;-79
2023/03/04 22:07:01;;;;;;;15.75;2.28;;;3.20;99.90;;;;;;12337548;28;20062;-80
2023/03/04 22:13:07;;;;;;;10.55;2.10;;;3.10;99.90;;;;;;12333250;28;20098;-80
2023/03/04 22:19:09;;;;;;;11.75;2.17;;;3.10;99.90;;;;;;12305468;28;20046;-80
2023/03/04 22:25:11;;;;;;;11.45;3.13;;;3.00;99.90;;;;;;12329416;28;20031;-80
2023/03/04 22:31:15;;;;;;;15.82;2.85;;;2.90;99.90;;;;;;12392989;28;20051;-79
2023/03/04 22:37:18;;;;;;;11.52;1.90;;;3.10;99.90;;;;;;12391599;28;20098;-80
2023/03/04 22:43:21;;;;;;;8.45;1.67;;;3.00;99.90;;;;;;12380538;28;20078;-80
2023/03/04 22:49:22;;;;;;;17.98;2.53;;;3.00;99.90;;;;;;12352903;28;20039;-80
2023/03/04 22:55:24;;;;;;;14.80;1.83;;;3.00;99.90;;;;;;12315890;28;20047;-80
2023/03/04 23:01:26;;;;;;;13.15;2.00;;;3.00;99.90;;;;;;12342625;28;20483;-80
2023/03/04 23:07:28;;;;;;;8.77;1.98;;;3.00;99.90;;;;;;12348627;28;20046;-80
2023/03/04 23:13:32;;;;;;;8.70;1.73;;;3.00;99.90;;;;;;12366987;28;20126;-79
2023/03/04 23:19:34;;;;;;;12.60;2.37;;;3.00;99.90;;;;;;12319436;28;20058;-80
2023/03/04 23:25:37;;;;;;;9.07;1.70;;;3.00;99.90;;;;;;12329450;28;20051;-80
2023/03/04 23:31:39;;;;;;;9.75;2.25;;;2.90;99.90;;;;;;12290381;28;20093;-79
2023/03/04 23:37:41;;;;;;;12.55;2.20;;;2.90;99.90;;;;;;12386256;28;20104;-80
2023/03/04 23:43:43;;;;;;;8.48;1.73;;;2.90;99.90;;;;;;12367998;28;20639;-80
2023/03/04 23:49:44;;;;;;;11.80;2.10;;;2.90;99.90;;;;;;12327003;28;20043;-80
2023/03/04 23:55:46;;;;;;;12.32;2.50;;;2.90;99.90;;;;;;12345877;28;20042;-79
